Big Bear Station Historical Data
Daily Summary for January 10, 2017 Units:  English    Metric   Both
« Previous Day
Next Day »
Daily Weekly Monthly Yearly Custom
  High: Low: Average:
Temperature: 41.9 °F 31.5 °F 36.1 °F
Dew Point: 31.9 °F -1.3 °F 21.6 °F
Humidity: 96 % 17 % 62 %
Wind Speed: 7.3 mph 0.0 mph 3.6 mph
Wind Gust: -999.0 mph - -
Wind:- - West
Pressure: 23.48 in 23.39 in -
Precipitation: 0.00 in    
Historical Graphs
 
 
Tabular Data for January 10, 2017
Time Temperature Dew Point Pressure Wind Wind Speed Wind Gust Humidity Rainfall Rate (Hourly)
00:39 37.8 °F 4.2 °F 23.48 in WNW 2.2 mph -999.0 mph 24 % 0 in
00:54 38.8 °F 3.2 °F 23.48 in North 5.3 mph -999.0 mph 22 % 0 in
01:10 38.7 °F 8.4 °F 23.48 in WNW 3.7 mph -999.0 mph 28 % 0 in
01:25 38.8 °F 5.0 °F 23.48 in WSW 3.7 mph -999.0 mph 24 % 0 in
01:40 38.8 °F 5.9 °F 23.48 in NW 3.2 mph -999.0 mph 25 % 0 in
01:56 38.7 °F 6.7 °F 23.48 in WSW 1.7 mph -999.0 mph 26 % 0 in
02:11 38.8 °F 5.9 °F 23.47 in South 2.7 mph -999.0 mph 25 % 0 in
02:26 38.5 °F 7.4 °F 23.48 in NW 7.3 mph -999.0 mph 27 % 0 in
02:42 37.9 °F 9.2 °F 23.48 in West 2.7 mph -999.0 mph 30 % 0 in
02:57 37.2 °F 12.7 °F 23.47 in NNW 2.7 mph -999.0 mph 36 % 0 in
03:13 36.7 °F 12.2 °F 23.47 in NW 2.7 mph -999.0 mph 36 % 0 in
03:28 37.4 °F 9.5 °F 23.46 in NW 3.7 mph -999.0 mph 31 % 0 in
03:43 37.9 °F 4.3 °F 23.45 in NW 5.3 mph -999.0 mph 24 % 0 in
04:13 36.7 °F 12.2 °F 23.45 in WNW 2.2 mph -999.0 mph 36 % 0 in
04:29 35.8 °F 13.8 °F 23.44 in WNW 1.7 mph -999.0 mph 40 % 0 in
04:44 35.8 °F 12.6 °F 23.44 in NW 4.2 mph -999.0 mph 38 % 0 in
04:59 35.8 °F 13.2 °F 23.44 in NW 4.7 mph -999.0 mph 39 % 0 in
05:14 35.4 °F 12.3 °F 23.44 in WNW 3.2 mph -999.0 mph 38 % 0 in
05:29 36.7 °F 7.4 °F 23.44 in West 2.2 mph -999.0 mph 29 % 0 in
05:45 37.2 °F 5.4 °F 23.43 in NW 3.2 mph -999.0 mph 26 % 0 in
06:00 38.8 °F 5.0 °F 23.43 in WNW 5.3 mph -999.0 mph 24 % 0 in
06:15 40.1 °F -1.3 °F 23.43 in West 6.3 mph -999.0 mph 17 % 0 in
06:31 39.4 °F 1.6 °F 23.44 in West 2.7 mph -999.0 mph 20 % 0 in
06:46 38.3 °F 10.3 °F 23.44 in NNW 4.2 mph -999.0 mph 31 % 0 in
07:01 37.2 °F 10.0 °F 23.44 in ESE 3.7 mph -999.0 mph 32 % 0 in
07:16 36.1 °F 13.5 °F 23.45 in East 5.3 mph -999.0 mph 39 % 0 in
07:47 36.1 °F 12.3 °F 23.45 in WNW 2.2 mph -999.0 mph 37 % 0 in
08:02 36.9 °F 11.1 °F 23.45 in NW 3.2 mph -999.0 mph 34 % 0 in
08:18 36.5 °F 16.1 °F 23.45 in WNW 1.7 mph -999.0 mph 43 % 0 in
08:33 36.0 °F 15.1 °F 23.46 in NNW 3.2 mph -999.0 mph 42 % 0 in
08:48 37.8 °F 11.9 °F 23.46 in NW 4.2 mph -999.0 mph 34 % 0 in
09:03 38.5 °F 11.2 °F 23.46 in WSW 3.2 mph -999.0 mph 32 % 0 in
09:19 38.8 °F 13.5 °F 23.47 in West 2.2 mph -999.0 mph 35 % 0 in
09:34 38.8 °F 15.9 °F 23.47 in WNW 3.7 mph -999.0 mph 39 % 0 in
09:49 38.3 °F 19.8 °F 23.47 in NW 5.3 mph -999.0 mph 47 % 0 in
10:04 38.3 °F 19.8 °F 23.47 in West 3.2 mph -999.0 mph 47 % 0 in
10:19 37.6 °F 25.0 °F 23.47 in NW 5.3 mph -999.0 mph 60 % 0 in
10:35 37.4 °F 26.3 °F 23.47 in West 4.7 mph -999.0 mph 64 % 0 in
10:50 38.1 °F 26.6 °F 23.46 in WNW 4.2 mph -999.0 mph 63 % 0 in
11:06 39.4 °F 25.8 °F 23.45 in NW 4.7 mph -999.0 mph 58 % 0 in
11:21 39.9 °F 26.7 °F 23.45 in NW 4.7 mph -999.0 mph 59 % 0 in
11:37 40.3 °F 25.4 °F 23.45 in SE 3.2 mph -999.0 mph 55 % 0 in
11:52 40.3 °F 26.3 °F 23.44 in NW 5.8 mph -999.0 mph 57 % 0 in
12:07 39.7 °F 29.6 °F 23.42 in NW 4.7 mph -999.0 mph 67 % 0 in
12:23 38.3 °F 30.7 °F 23.42 in West 2.7 mph -999.0 mph 74 % 0 in
12:38 40.6 °F 27.0 °F 23.42 in South 2.2 mph -999.0 mph 58 % 0 in
12:54 41.7 °F 23.9 °F 23.41 in SSW 3.2 mph -999.0 mph 49 % 0 in
13:09 41.9 °F 23.6 °F 23.41 in West 2.7 mph -999.0 mph 48 % 0 in
13:24 40.3 °F 28.3 °F 23.41 in South 1.7 mph -999.0 mph 62 % 0 in
13:40 38.3 °F 30.1 °F 23.41 in NW 5.8 mph -999.0 mph 72 % 0 in
13:55 37.4 °F 30.2 °F 23.42 in NW 7.3 mph -999.0 mph 75 % 0 in
14:10 37.4 °F 31.2 °F 23.41 in NE 6.3 mph -999.0 mph 78 % 0 in
14:25 37.0 °F 30.8 °F 23.41 in NW 4.2 mph -999.0 mph 78 % 0 in
14:40 37.4 °F 30.8 °F 23.41 in West 3.2 mph -999.0 mph 77 % 0 in
14:56 37.0 °F 30.5 °F 23.41 in NW 3.7 mph -999.0 mph 77 % 0 in
15:11 36.7 °F 29.5 °F 23.40 in West 4.2 mph -999.0 mph 75 % 0 in
15:26 36.3 °F 30.1 °F 23.40 in WNW 2.2 mph -999.0 mph 78 % 0 in
15:57 35.4 °F 29.8 °F 23.40 in WNW 2.7 mph -999.0 mph 80 % 0 in
16:12 35.1 °F 29.6 °F 23.40 in NNE 1.7 mph -999.0 mph 80 % 0 in
16:28 34.5 °F 29.6 °F 23.40 in WNW 2.7 mph -999.0 mph 82 % 0 in
16:43 34.0 °F 30.0 °F 23.40 in WNW 5.8 mph -999.0 mph 85 % 0 in
16:58 33.6 °F 30.4 °F 23.40 in East 4.2 mph -999.0 mph 88 % 0 in
17:13 33.3 °F 29.9 °F 23.40 in SW 2.7 mph -999.0 mph 87 % 0 in
17:28 32.9 °F 29.5 °F 23.40 in South 3.2 mph -999.0 mph 87 % 0 in
17:44 32.7 °F 29.5 °F 23.40 in ENE 2.7 mph -999.0 mph 88 % 0 in
17:59 32.7 °F 30.6 °F 23.40 in NNW 3.2 mph -999.0 mph 92 % 0 in
18:14 32.5 °F 30.7 °F 23.40 in NW 4.7 mph -999.0 mph 93 % 0 in
18:29 32.2 °F 30.4 °F 23.40 in West 6.3 mph -999.0 mph 93 % 0 in
18:45 32.2 °F 30.7 °F 23.39 in NW 4.7 mph -999.0 mph 94 % 0 in
19:00 32.0 °F 30.7 °F 23.39 in WNW 2.7 mph -999.0 mph 95 % 0 in
19:15 32.0 °F 30.7 °F 23.39 in NW 2.7 mph -999.0 mph 95 % 0 in
19:31 32.2 °F 29.6 °F 23.39 in South 2.7 mph -999.0 mph 90 % 0 in
19:46 32.0 °F 30.2 °F 23.40 in West 3.2 mph -999.0 mph 93 % 0 in
20:01 31.6 °F 29.8 °F 23.39 in WNW 4.7 mph -999.0 mph 93 % 0 in
20:16 31.6 °F 30.3 °F 23.40 in SE 3.7 mph -999.0 mph 95 % 0 in
20:31 31.5 °F 30.2 °F 23.40 in NNW 4.2 mph -999.0 mph 95 % 0 in
20:47 31.6 °F 29.8 °F 23.41 in West 2.7 mph -999.0 mph 93 % 0 in
21:02 31.8 °F 30.0 °F 23.41 in ESE 1.1 mph -999.0 mph 93 % 0 in
21:17 32.0 °F 30.5 °F 23.40 in SSE 1.1 mph -999.0 mph 94 % 0 in
21:33 32.0 °F 30.7 °F 23.41 in SE 2.7 mph -999.0 mph 95 % 0 in
21:48 32.2 °F 31.2 °F 23.42 in SSW 1.7 mph -999.0 mph 96 % 0 in
22:03 32.2 °F 31.2 °F 23.41 in SSW 1.1 mph -999.0 mph 96 % 0 in
22:19 32.4 °F 31.4 °F 23.41 in Calm   -999.0 mph 96 % 0 in
22:34 32.4 °F 31.1 °F 23.42 in NE 4.7 mph -999.0 mph 95 % 0 in
22:49 32.5 °F 31.2 °F 23.41 in NW 2.2 mph -999.0 mph 95 % 0 in
23:04 32.7 °F 31.7 °F 23.40 in North 3.2 mph -999.0 mph 96 % 0 in
23:19 32.9 °F 31.9 °F 23.40 in WNW 4.2 mph -999.0 mph 96 % 0 in
23:35 32.7 °F 31.7 °F 23.40 in North 3.7 mph -999.0 mph 96 % 0 in
23:50 32.7 °F 31.7 °F 23.40 in West 5.3 mph -999.0 mph 96 % 0 in
Big Bear CA Weather
Compliments of Weather Underground - 1.5 mb